sensor_id;sensor_type;location;lat;lon;timestamp;pressure;altitude;pressure_sealevel;temperature;humidity
21706;BME280;11014;53.076;18.208;2023-12-22T00:01:46;97330.19;;;8.70;59.63
21706;BME280;11014;53.076;18.208;2023-12-22T00:04:18;97321.19;;;8.66;59.53
21706;BME280;11014;53.076;18.208;2023-12-22T00:06:47;97333.56;;;8.62;59.28
21706;BME280;11014;53.076;18.208;2023-12-22T00:09:17;97329.81;;;8.63;59.40
21706;BME280;11014;53.076;18.208;2023-12-22T00:11:48;97315.50;;;8.26;59.69
21706;BME280;11014;53.076;18.208;2023-12-22T00:14:17;97333.72;;;8.24;59.37
21706;BME280;11014;53.076;18.208;2023-12-22T00:16:45;97336.06;;;8.26;60.00
21706;BME280;11014;53.076;18.208;2023-12-22T00:19:14;97328.84;;;8.26;60.20
21706;BME280;11014;53.076;18.208;2023-12-22T00:21:43;97332.22;;;7.86;60.72
21706;BME280;11014;53.076;18.208;2023-12-22T00:24:12;97319.28;;;8.39;60.47
21706;BME280;11014;53.076;18.208;2023-12-22T00:26:40;97314.63;;;8.31;60.47
21706;BME280;11014;53.076;18.208;2023-12-22T00:29:10;97309.00;;;8.32;60.60
21706;BME280;11014;53.076;18.208;2023-12-22T00:31:38;97296.91;;;8.49;59.98
21706;BME280;11014;53.076;18.208;2023-12-22T00:34:07;97312.25;;;8.29;60.33
21706;BME280;11014;53.076;18.208;2023-12-22T00:36:35;97303.84;;;8.50;59.76
21706;BME280;11014;53.076;18.208;2023-12-22T00:39:04;97319.59;;;8.38;59.34
21706;BME280;11014;53.076;18.208;2023-12-22T00:41:32;97327.81;;;8.09;60.75
21706;BME280;11014;53.076;18.208;2023-12-22T00:44:01;97321.59;;;8.46;61.18
21706;BME280;11014;53.076;18.208;2023-12-22T00:46:30;97329.22;;;8.39;62.68
21706;BME280;11014;53.076;18.208;2023-12-22T00:48:59;97326.88;;;8.18;64.91
21706;BME280;11014;53.076;18.208;2023-12-22T00:51:27;97340.81;;;8.15;66.17
21706;BME280;11014;53.076;18.208;2023-12-22T00:53:56;97357.97;;;7.96;68.17
21706;BME280;11014;53.076;18.208;2023-12-22T00:56:25;97360.38;;;6.85;73.86
21706;BME280;11014;53.076;18.208;2023-12-22T00:58:54;97412.47;;;7.01;76.70
21706;BME280;11014;53.076;18.208;2023-12-22T01:01:32;97415.66;;;7.22;77.51
21706;BME280;11014;53.076;18.208;2023-12-22T01:04:01;97403.25;;;7.12;77.99
21706;BME280;11014;53.076;18.208;2023-12-22T01:06:29;97410.06;;;7.24;78.01
21706;BME280;11014;53.076;18.208;2023-12-22T01:09:00;97420.16;;;7.27;78.43
21706;BME280;11014;53.076;18.208;2023-12-22T01:11:29;97396.41;;;7.25;78.58
21706;BME280;11014;53.076;18.208;2023-12-22T01:13:58;97414.59;;;7.23;78.59
21706;BME280;11014;53.076;18.208;2023-12-22T01:16:26;97399.50;;;7.13;79.25
21706;BME280;11014;53.076;18.208;2023-12-22T01:18:56;97397.94;;;7.12;79.43
21706;BME280;11014;53.076;18.208;2023-12-22T01:21:24;97401.16;;;7.09;79.26
21706;BME280;11014;53.076;18.208;2023-12-22T01:23:53;97414.94;;;7.16;79.11
21706;BME280;11014;53.076;18.208;2023-12-22T01:26:22;97406.44;;;7.14;78.77
21706;BME280;11014;53.076;18.208;2023-12-22T01:28:51;97408.59;;;7.12;79.39
21706;BME280;11014;53.076;18.208;2023-12-22T01:31:19;97409.44;;;7.08;79.37
21706;BME280;11014;53.076;18.208;2023-12-22T01:33:48;97394.28;;;7.03;79.89
21706;BME280;11014;53.076;18.208;2023-12-22T01:36:17;97392.69;;;7.02;80.17
21706;BME280;11014;53.076;18.208;2023-12-22T01:38:45;97390.09;;;6.97;80.00
21706;BME280;11014;53.076;18.208;2023-12-22T01:41:15;97405.03;;;6.75;80.27
21706;BME280;11014;53.076;18.208;2023-12-22T01:43:43;97418.03;;;6.81;79.95
21706;BME280;11014;53.076;18.208;2023-12-22T01:46:12;97401.38;;;6.89;79.77
21706;BME280;11014;53.076;18.208;2023-12-22T01:48:41;97418.16;;;7.13;79.01
21706;BME280;11014;53.076;18.208;2023-12-22T01:51:10;97414.00;;;7.07;78.45
21706;BME280;11014;53.076;18.208;2023-12-22T01:53:39;97404.25;;;7.16;78.18
21706;BME280;11014;53.076;18.208;2023-12-22T01:56:07;97410.63;;;7.21;77.67
21706;BME280;11014;53.076;18.208;2023-12-22T01:58:37;97401.91;;;7.15;77.07
21706;BME280;11014;53.076;18.208;2023-12-22T02:01:17;97420.75;;;7.24;77.45
21706;BME280;11014;53.076;18.208;2023-12-22T02:03:49;97412.72;;;7.24;77.07
21706;BME280;11014;53.076;18.208;2023-12-22T02:06:21;97423.66;;;7.03;77.46
21706;BME280;11014;53.076;18.208;2023-12-22T02:08:50;97418.25;;;7.08;77.54
21706;BME280;11014;53.076;18.208;2023-12-22T02:11:18;97410.81;;;7.05;77.72
21706;BME280;11014;53.076;18.208;2023-12-22T02:13:48;97420.06;;;6.89;78.26
21706;BME280;11014;53.076;18.208;2023-12-22T02:16:31;97429.16;;;6.88;78.52
21706;BME280;11014;53.076;18.208;2023-12-22T02:19:30;97421.03;;;6.98;78.86
21706;BME280;11014;53.076;18.208;2023-12-22T02:22:07;97423.31;;;7.10;78.97
21706;BME280;11014;53.076;18.208;2023-12-22T02:24:41;97444.81;;;6.95;78.64
21706;BME280;11014;53.076;18.208;2023-12-22T02:32:51;97426.88;;;6.77;79.09
21706;BME280;11014;53.076;18.208;2023-12-22T02:35:25;97428.00;;;6.71;78.74
21706;BME280;11014;53.076;18.208;2023-12-22T02:37:57;97412.00;;;6.71;78.57
21706;BME280;11014;53.076;18.208;2023-12-22T02:40:28;97443.94;;;6.76;78.57
21706;BME280;11014;53.076;18.208;2023-12-22T02:42:58;97443.72;;;6.72;78.79
21706;BME280;11014;53.076;18.208;2023-12-22T02:45:27;97426.19;;;6.66;78.22
21706;BME280;11014;53.076;18.208;2023-12-22T02:47:56;97431.59;;;6.56;77.99
21706;BME280;11014;53.076;18.208;2023-12-22T02:50:25;97453.97;;;6.60;77.86
21706;BME280;11014;53.076;18.208;2023-12-22T02:52:54;97428.38;;;6.59;77.47
21706;BME280;11014;53.076;18.208;2023-12-22T02:55:23;97440.03;;;6.68;77.52
21706;BME280;11014;53.076;18.208;2023-12-22T02:57:51;97437.25;;;6.78;77.00
21706;BME280;11014;53.076;18.208;2023-12-22T03:00:20;97439.91;;;6.78;76.38
21706;BME280;11014;53.076;18.208;2023-12-22T03:02:49;97423.59;;;6.85;75.86
21706;BME280;11014;53.076;18.208;2023-12-22T03:05:18;97430.69;;;6.94;75.91
21706;BME280;11014;53.076;18.208;2023-12-22T03:07:46;97417.69;;;6.88;74.42
21706;BME280;11014;53.076;18.208;2023-12-22T03:10:16;97433.88;;;6.96;74.39
21706;BME280;11014;53.076;18.208;2023-12-22T03:12:44;97452.56;;;6.91;73.39
21706;BME280;11014;53.076;18.208;2023-12-22T03:15:13;97447.47;;;6.95;72.97
21706;BME280;11014;53.076;18.208;2023-12-22T03:17:41;97469.56;;;7.00;72.35
21706;BME280;11014;53.076;18.208;2023-12-22T03:20:10;97442.88;;;7.00;70.88
21706;BME280;11014;53.076;18.208;2023-12-22T03:22:39;97432.16;;;7.05;70.61
21706;BME280;11014;53.076;18.208;2023-12-22T03:25:08;97470.97;;;7.16;70.23
21706;BME280;11014;53.076;18.208;2023-12-22T03:27:36;97448.00;;;7.21;69.25
21706;BME280;11014;53.076;18.208;2023-12-22T03:30:05;97462.41;;;7.20;68.64
21706;BME280;11014;53.076;18.208;2023-12-22T03:32:34;97435.16;;;7.23;68.55
21706;BME280;11014;53.076;18.208;2023-12-22T03:35:04;97427.22;;;7.18;68.84
21706;BME280;11014;53.076;18.208;2023-12-22T03:37:32;97450.94;;;6.95;67.20
21706;BME280;11014;53.076;18.208;2023-12-22T03:40:02;97442.88;;;7.00;66.71
21706;BME280;11014;53.076;18.208;2023-12-22T03:42:31;97444.38;;;6.88;64.74
21706;BME280;11014;53.076;18.208;2023-12-22T03:45:00;97451.94;;;7.04;64.86
21706;BME280;11014;53.076;18.208;2023-12-22T03:47:28;97442.19;;;7.13;64.13
21706;BME280;11014;53.076;18.208;2023-12-22T03:49:57;97441.63;;;7.16;63.33
21706;BME280;11014;53.076;18.208;2023-12-22T03:52:25;97460.53;;;7.20;62.96
21706;BME280;11014;53.076;18.208;2023-12-22T03:54:54;97470.09;;;7.26;61.78
21706;BME280;11014;53.076;18.208;2023-12-22T03:57:23;97465.47;;;7.32;61.13
21706;BME280;11014;53.076;18.208;2023-12-22T03:59:52;97477.09;;;7.41;60.28
21706;BME280;11014;53.076;18.208;2023-12-22T04:02:21;97485.56;;;7.48;60.28
21706;BME280;11014;53.076;18.208;2023-12-22T04:04:49;97475.47;;;7.45;61.28
21706;BME280;11014;53.076;18.208;2023-12-22T04:07:18;97485.72;;;7.56;62.12
21706;BME280;11014;53.076;18.208;2023-12-22T04:09:47;97490.00;;;7.34;61.86
21706;BME280;11014;53.076;18.208;2023-12-22T04:12:16;97493.75;;;7.56;61.08
21706;BME280;11014;53.076;18.208;2023-12-22T04:14:45;97494.16;;;7.45;59.39
21706;BME280;11014;53.076;18.208;2023-12-22T04:17:13;97493.09;;;7.64;57.94
21706;BME280;11014;53.076;18.208;2023-12-22T04:19:42;97504.88;;;7.82;57.83
21706;BME280;11014;53.076;18.208;2023-12-22T04:22:11;97502.84;;;7.93;57.37
21706;BME280;11014;53.076;18.208;2023-12-22T04:24:39;97504.13;;;7.76;55.42
21706;BME280;11014;53.076;18.208;2023-12-22T04:27:08;97515.47;;;7.87;55.50
21706;BME280;11014;53.076;18.208;2023-12-22T04:29:37;97493.13;;;7.83;54.81
21706;BME280;11014;53.076;18.208;2023-12-22T04:32:05;97508.59;;;7.62;52.28
21706;BME280;11014;53.076;18.208;2023-12-22T04:34:34;97522.13;;;7.71;52.35
21706;BME280;11014;53.076;18.208;2023-12-22T04:37:03;97514.47;;;7.83;51.78
21706;BME280;11014;53.076;18.208;2023-12-22T04:39:32;97503.66;;;7.93;52.29
21706;BME280;11014;53.076;18.208;2023-12-22T04:42:00;97497.88;;;7.86;51.86
21706;BME280;11014;53.076;18.208;2023-12-22T04:44:29;97516.34;;;8.01;51.68
21706;BME280;11014;53.076;18.208;2023-12-22T04:46:57;97518.97;;;8.06;51.86
21706;BME280;11014;53.076;18.208;2023-12-22T04:49:26;97508.50;;;8.10;51.43
21706;BME280;11014;53.076;18.208;2023-12-22T04:51:55;97525.81;;;7.94;50.92
21706;BME280;11014;53.076;18.208;2023-12-22T04:54:29;97504.94;;;7.77;50.70
21706;BME280;11014;53.076;18.208;2023-12-22T04:56:58;97521.47;;;7.79;50.95
21706;BME280;11014;53.076;18.208;2023-12-22T04:59:28;97507.91;;;7.94;50.99
21706;BME280;11014;53.076;18.208;2023-12-22T05:01:57;97507.91;;;7.75;50.49
21706;BME280;11014;53.076;18.208;2023-12-22T05:04:26;97515.63;;;7.77;50.66
21706;BME280;11014;53.076;18.208;2023-12-22T05:06:55;97504.94;;;7.96;50.60
21706;BME280;11014;53.076;18.208;2023-12-22T05:09:24;97545.75;;;7.83;50.49
21706;BME280;11014;53.076;18.208;2023-12-22T05:11:53;97513.53;;;7.93;50.16
21706;BME280;11014;53.076;18.208;2023-12-22T05:14:22;97518.94;;;7.69;49.95
21706;BME280;11014;53.076;18.208;2023-12-22T05:16:50;97520.31;;;7.85;50.00
21706;BME280;11014;53.076;18.208;2023-12-22T05:19:23;97517.66;;;7.85;49.50
21706;BME280;11014;53.076;18.208;2023-12-22T05:21:52;97517.13;;;7.64;49.24
21706;BME280;11014;53.076;18.208;2023-12-22T05:24:24;97516.91;;;7.61;48.48
21706;BME280;11014;53.076;18.208;2023-12-22T05:26:53;97546.22;;;7.66;48.12
21706;BME280;11014;53.076;18.208;2023-12-22T05:29:21;97515.31;;;7.60;47.49
21706;BME280;11014;53.076;18.208;2023-12-22T05:31:50;97531.72;;;7.72;47.64
21706;BME280;11014;53.076;18.208;2023-12-22T05:34:18;97528.44;;;7.33;45.97
21706;BME280;11014;53.076;18.208;2023-12-22T05:36:47;97541.50;;;7.58;46.23
21706;BME280;11014;53.076;18.208;2023-12-22T05:39:15;97557.53;;;7.58;46.11
21706;BME280;11014;53.076;18.208;2023-12-22T05:41:43;97520.97;;;7.77;46.40
21706;BME280;11014;53.076;18.208;2023-12-22T05:44:12;97556.78;;;7.76;45.80
21706;BME280;11014;53.076;18.208;2023-12-22T05:46:40;97545.16;;;7.67;45.79
21706;BME280;11014;53.076;18.208;2023-12-22T05:49:09;97547.34;;;7.60;45.66
21706;BME280;11014;53.076;18.208;2023-12-22T05:51:38;97602.38;;;7.37;45.23
21706;BME280;11014;53.076;18.208;2023-12-22T05:54:08;97554.31;;;7.37;45.72
21706;BME280;11014;53.076;18.208;2023-12-22T05:56:39;97529.13;;;7.43;46.06
21706;BME280;11014;53.076;18.208;2023-12-22T05:59:08;97527.16;;;7.30;45.65
21706;BME280;11014;53.076;18.208;2023-12-22T06:01:37;97553.13;;;6.96;45.57
21706;BME280;11014;53.076;18.208;2023-12-22T06:04:06;97550.88;;;7.08;46.38
21706;BME280;11014;53.076;18.208;2023-12-22T06:06:36;97541.16;;;7.17;46.36
21706;BME280;11014;53.076;18.208;2023-12-22T06:09:09;97539.06;;;7.14;46.43
21706;BME280;11014;53.076;18.208;2023-12-22T06:11:40;97552.34;;;6.95;46.76
21706;BME280;11014;53.076;18.208;2023-12-22T06:14:09;97542.25;;;7.16;46.58
21706;BME280;11014;53.076;18.208;2023-12-22T06:16:38;97546.13;;;7.00;46.76
21706;BME280;11014;53.076;18.208;2023-12-22T06:19:07;97570.09;;;6.76;47.35
21706;BME280;11014;53.076;18.208;2023-12-22T06:21:39;97579.47;;;7.02;49.40
21706;BME280;11014;53.076;18.208;2023-12-22T06:24:09;97586.88;;;6.82;50.32
21706;BME280;11014;53.076;18.208;2023-12-22T06:26:38;97561.88;;;7.01;49.93
21706;BME280;11014;53.076;18.208;2023-12-22T06:29:07;97557.56;;;7.05;49.98
21706;BME280;11014;53.076;18.208;2023-12-22T06:31:35;97557.44;;;7.21;49.59
21706;BME280;11014;53.076;18.208;2023-12-22T06:34:04;97546.56;;;7.12;48.79
21706;BME280;11014;53.076;18.208;2023-12-22T06:36:33;97578.03;;;7.15;48.34
21706;BME280;11014;53.076;18.208;2023-12-22T06:39:02;97578.41;;;7.03;48.35
21706;BME280;11014;53.076;18.208;2023-12-22T06:41:31;97574.75;;;6.94;49.21
21706;BME280;11014;53.076;18.208;2023-12-22T06:44:04;97560.84;;;6.97;50.17
21706;BME280;11014;53.076;18.208;2023-12-22T06:46:32;97577.50;;;6.84;50.14
21706;BME280;11014;53.076;18.208;2023-12-22T06:49:02;97558.53;;;6.86;50.66
21706;BME280;11014;53.076;18.208;2023-12-22T06:51:34;97569.69;;;6.93;50.96
21706;BME280;11014;53.076;18.208;2023-12-22T06:54:04;97591.44;;;6.76;52.44
21706;BME280;11014;53.076;18.208;2023-12-22T06:56:34;97576.50;;;6.75;55.68
21706;BME280;11014;53.076;18.208;2023-12-22T06:59:03;97557.94;;;6.65;57.73
21706;BME280;11014;53.076;18.208;2023-12-22T07:01:35;97563.09;;;6.51;58.06
21706;BME280;11014;53.076;18.208;2023-12-22T07:04:05;97548.13;;;6.22;58.36
21706;BME280;11014;53.076;18.208;2023-12-22T07:06:34;97548.59;;;6.29;58.91
21706;BME280;11014;53.076;18.208;2023-12-22T07:11:49;97553.44;;;6.22;58.35
21706;BME280;11014;53.076;18.208;2023-12-22T07:14:27;97566.16;;;6.35;57.77
21706;BME280;11014;53.076;18.208;2023-12-22T07:16:55;97560.97;;;6.10;56.87
21706;BME280;11014;53.076;18.208;2023-12-22T07:19:26;97566.69;;;6.32;55.84
21706;BME280;11014;53.076;18.208;2023-12-22T07:21:55;97566.75;;;6.27;53.60
21706;BME280;11014;53.076;18.208;2023-12-22T07:24:23;97554.81;;;6.53;53.04
21706;BME280;11014;53.076;18.208;2023-12-22T07:26:52;97561.03;;;6.43;52.45
21706;BME280;11014;53.076;18.208;2023-12-22T07:29:22;97575.03;;;6.59;51.58
21706;BME280;11014;53.076;18.208;2023-12-22T07:31:52;97555.22;;;6.70;50.58
21706;BME280;11014;53.076;18.208;2023-12-22T07:34:21;97551.44;;;6.76;50.24
21706;BME280;11014;53.076;18.208;2023-12-22T07:36:51;97565.28;;;6.78;49.70
21706;BME280;11014;53.076;18.208;2023-12-22T07:39:35;97544.38;;;6.90;49.30
21706;BME280;11014;53.076;18.208;2023-12-22T07:42:30;97553.03;;;7.06;48.64
21706;BME280;11014;53.076;18.208;2023-12-22T07:44:59;97558.38;;;7.06;49.04
21706;BME280;11014;53.076;18.208;2023-12-22T07:47:34;97563.16;;;6.80;49.53
21706;BME280;11014;53.076;18.208;2023-12-22T07:50:05;97574.88;;;6.79;49.83
21706;BME280;11014;53.076;18.208;2023-12-22T07:52:37;97563.66;;;6.82;49.90
21706;BME280;11014;53.076;18.208;2023-12-22T07:55:09;97569.44;;;6.89;49.71
21706;BME280;11014;53.076;18.208;2023-12-22T07:57:38;97556.06;;;6.94;49.30
21706;BME280;11014;53.076;18.208;2023-12-22T08:00:08;97557.22;;;6.88;49.36
21706;BME280;11014;53.076;18.208;2023-12-22T08:02:41;97551.47;;;6.71;49.10
21706;BME280;11014;53.076;18.208;2023-12-22T08:05:10;97543.38;;;6.81;49.03
21706;BME280;11014;53.076;18.208;2023-12-22T08:07:38;97551.53;;;6.95;48.67
21706;BME280;11014;53.076;18.208;2023-12-22T08:10:07;97545.19;;;6.91;48.68
21706;BME280;11014;53.076;18.208;2023-12-22T08:12:36;97553.44;;;6.89;49.01
21706;BME280;11014;53.076;18.208;2023-12-22T08:15:06;97568.50;;;6.75;48.77
21706;BME280;11014;53.076;18.208;2023-12-22T08:17:35;97572.56;;;6.68;49.09
21706;BME280;11014;53.076;18.208;2023-12-22T08:20:05;97556.41;;;6.88;48.80
21706;BME280;11014;53.076;18.208;2023-12-22T08:22:47;97581.63;;;7.00;48.22
21706;BME280;11014;53.076;18.208;2023-12-22T08:25:17;97564.25;;;7.03;48.54
21706;BME280;11014;53.076;18.208;2023-12-22T08:27:49;97575.22;;;7.01;48.33
21706;BME280;11014;53.076;18.208;2023-12-22T08:30:18;97580.97;;;7.13;48.55
21706;BME280;11014;53.076;18.208;2023-12-22T08:32:46;97557.97;;;6.89;49.54
21706;BME280;11014;53.076;18.208;2023-12-22T08:35:15;97560.47;;;6.80;51.15
21706;BME280;11014;53.076;18.208;2023-12-22T08:37:44;97588.69;;;6.86;52.44
21706;BME280;11014;53.076;18.208;2023-12-22T08:40:13;97582.72;;;6.99;52.57
21706;BME280;11014;53.076;18.208;2023-12-22T08:42:42;97562.47;;;6.65;55.01
21706;BME280;11014;53.076;18.208;2023-12-22T08:45:11;97599.50;;;6.71;55.34
21706;BME280;11014;53.076;18.208;2023-12-22T08:47:39;97579.97;;;6.42;57.18
21706;BME280;11014;53.076;18.208;2023-12-22T08:50:08;97585.84;;;6.39;58.05
21706;BME280;11014;53.076;18.208;2023-12-22T08:52:38;97599.97;;;5.95;60.15
21706;BME280;11014;53.076;18.208;2023-12-22T08:55:07;97574.31;;;6.05;60.35
21706;BME280;11014;53.076;18.208;2023-12-22T08:57:35;97572.38;;;6.20;59.44
21706;BME280;11014;53.076;18.208;2023-12-22T09:00:06;97565.13;;;6.26;59.85
21706;BME280;11014;53.076;18.208;2023-12-22T09:02:35;97579.25;;;5.72;60.95
21706;BME280;11014;53.076;18.208;2023-12-22T09:05:04;97568.00;;;5.90;60.90
21706;BME280;11014;53.076;18.208;2023-12-22T09:07:35;97570.16;;;5.83;61.18
21706;BME280;11014;53.076;18.208;2023-12-22T09:10:04;97569.53;;;6.02;60.88
21706;BME280;11014;53.076;18.208;2023-12-22T09:12:35;97562.22;;;6.27;60.37
21706;BME280;11014;53.076;18.208;2023-12-22T09:15:04;97559.06;;;6.54;59.53
21706;BME280;11014;53.076;18.208;2023-12-22T09:17:33;97542.47;;;6.62;58.94
21706;BME280;11014;53.076;18.208;2023-12-22T09:20:02;97535.94;;;6.78;58.49
21706;BME280;11014;53.076;18.208;2023-12-22T09:22:31;97544.78;;;6.74;58.43
21706;BME280;11014;53.076;18.208;2023-12-22T09:24:59;97549.81;;;6.80;57.45
21706;BME280;11014;53.076;18.208;2023-12-22T09:27:28;97531.00;;;6.95;56.91
21706;BME280;11014;53.076;18.208;2023-12-22T09:29:58;97538.81;;;7.10;56.86
21706;BME280;11014;53.076;18.208;2023-12-22T09:32:27;97557.13;;;7.22;56.25
21706;BME280;11014;53.076;18.208;2023-12-22T09:34:57;97553.41;;;7.23;56.09
21706;BME280;11014;53.076;18.208;2023-12-22T09:37:27;97558.59;;;7.09;56.98
21706;BME280;11014;53.076;18.208;2023-12-22T09:39:56;97551.81;;;6.93;57.10
21706;BME280;11014;53.076;18.208;2023-12-22T09:42:25;97551.09;;;7.11;56.59
21706;BME280;11014;53.076;18.208;2023-12-22T09:44:55;97573.81;;;7.09;56.65
21706;BME280;11014;53.076;18.208;2023-12-22T09:47:27;97604.28;;;6.74;56.56
21706;BME280;11014;53.076;18.208;2023-12-22T09:49:59;97560.66;;;7.18;55.97
21706;BME280;11014;53.076;18.208;2023-12-22T09:52:29;97559.06;;;7.16;56.89
21706;BME280;11014;53.076;18.208;2023-12-22T09:54:58;97567.38;;;7.39;56.35
21706;BME280;11014;53.076;18.208;2023-12-22T09:57:28;97569.69;;;6.93;57.63
21706;BME280;11014;53.076;18.208;2023-12-22T09:59:59;97570.84;;;7.10;57.98
21706;BME280;11014;53.076;18.208;2023-12-22T10:02:29;97560.66;;;6.89;58.53
21706;BME280;11014;53.076;18.208;2023-12-22T10:04:59;97583.09;;;6.88;58.99
21706;BME280;11014;53.076;18.208;2023-12-22T10:07:28;97580.63;;;6.91;59.88
21706;BME280;11014;53.076;18.208;2023-12-22T10:09:59;97574.78;;;6.89;60.91
21706;BME280;11014;53.076;18.208;2023-12-22T10:12:29;97591.44;;;6.76;61.49
21706;BME280;11014;53.076;18.208;2023-12-22T10:15:00;97571.28;;;6.94;61.89
21706;BME280;11014;53.076;18.208;2023-12-22T10:17:30;97585.50;;;6.84;61.71
21706;BME280;11014;53.076;18.208;2023-12-22T10:19:59;97563.91;;;6.52;62.49
21706;BME280;11014;53.076;18.208;2023-12-22T10:22:27;97583.69;;;6.80;63.14
21706;BME280;11014;53.076;18.208;2023-12-22T10:24:56;97583.47;;;6.71;63.43
21706;BME280;11014;53.076;18.208;2023-12-22T10:27:25;97583.31;;;6.57;64.13
21706;BME280;11014;53.076;18.208;2023-12-22T10:29:55;97567.06;;;6.54;64.92
21706;BME280;11014;53.076;18.208;2023-12-22T10:32:24;97555.31;;;6.60;65.41
21706;BME280;11014;53.076;18.208;2023-12-22T10:34:53;97556.97;;;6.51;66.10
21706;BME280;11014;53.076;18.208;2023-12-22T10:37:22;97557.59;;;6.38;66.73
21706;BME280;11014;53.076;18.208;2023-12-22T10:39:54;97581.69;;;6.23;67.87
21706;BME280;11014;53.076;18.208;2023-12-22T10:42:23;97572.13;;;6.17;68.82
21706;BME280;11014;53.076;18.208;2023-12-22T10:44:52;97562.75;;;5.70;70.49
21706;BME280;11014;53.076;18.208;2023-12-22T10:47:22;97561.25;;;5.44;72.40
21706;BME280;11014;53.076;18.208;2023-12-22T10:49:51;97551.09;;;5.56;73.55
21706;BME280;11014;53.076;18.208;2023-12-22T10:52:20;97549.75;;;5.59;73.72
21706;BME280;11014;53.076;18.208;2023-12-22T10:54:51;97566.22;;;5.71;73.63
21706;BME280;11014;53.076;18.208;2023-12-22T10:57:20;97536.69;;;5.67;73.28
21706;BME280;11014;53.076;18.208;2023-12-22T10:59:50;97537.13;;;5.84;72.74
21706;BME280;11014;53.076;18.208;2023-12-22T11:02:32;97536.28;;;5.94;72.31
21706;BME280;11014;53.076;18.208;2023-12-22T11:05:04;97540.78;;;5.98;72.35
21706;BME280;11014;53.076;18.208;2023-12-22T11:07:35;97542.31;;;6.10;71.88
21706;BME280;11014;53.076;18.208;2023-12-22T11:10:08;97538.63;;;6.06;71.51
21706;BME280;11014;53.076;18.208;2023-12-22T11:12:47;97511.59;;;5.78;70.91
21706;BME280;11014;53.076;18.208;2023-12-22T11:15:16;97528.81;;;5.96;70.67
21706;BME280;11014;53.076;18.208;2023-12-22T11:17:48;97511.66;;;6.12;70.14
21706;BME280;11014;53.076;18.208;2023-12-22T11:20:43;97525.63;;;6.38;69.63
21706;BME280;11014;53.076;18.208;2023-12-22T11:23:12;97529.84;;;6.44;68.85
21706;BME280;11014;53.076;18.208;2023-12-22T11:25:42;97523.47;;;6.40;68.35
21706;BME280;11014;53.076;18.208;2023-12-22T11:28:13;97507.38;;;6.16;68.15
21706;BME280;11014;53.076;18.208;2023-12-22T11:30:49;97526.91;;;6.02;68.56
21706;BME280;11014;53.076;18.208;2023-12-22T11:33:25;97514.63;;;6.11;69.04
21706;BME280;11014;53.076;18.208;2023-12-22T11:36:38;97506.03;;;6.19;69.03
21706;BME280;11014;53.076;18.208;2023-12-22T11:39:06;97514.72;;;5.95;69.40
21706;BME280;11014;53.076;18.208;2023-12-22T11:41:36;97493.91;;;6.03;69.94
21706;BME280;11014;53.076;18.208;2023-12-22T11:44:06;97520.47;;;6.13;69.67
21706;BME280;11014;53.076;18.208;2023-12-22T11:46:36;97525.28;;;6.11;69.57
21706;BME280;11014;53.076;18.208;2023-12-22T11:49:12;97528.88;;;5.86;69.93
21706;BME280;11014;53.076;18.208;2023-12-22T11:51:44;97547.75;;;5.94;70.75
21706;BME280;11014;53.076;18.208;2023-12-22T11:54:54;97557.72;;;5.64;72.47
21706;BME280;11014;53.076;18.208;2023-12-22T12:00:42;97564.94;;;5.58;74.41
21706;BME280;11014;53.076;18.208;2023-12-22T12:02:54;97564.56;;;5.11;76.25
21706;BME280;11014;53.076;18.208;2023-12-22T12:05:23;97579.91;;;5.39;76.98
21706;BME280;11014;53.076;18.208;2023-12-22T12:07:52;97572.53;;;5.11;77.43
21706;BME280;11014;53.076;18.208;2023-12-22T12:13:09;97579.44;;;5.07;78.53
21706;BME280;11014;53.076;18.208;2023-12-22T12:15:38;97569.31;;;5.19;78.34
21706;BME280;11014;53.076;18.208;2023-12-22T12:18:31;97562.97;;;4.95;79.33
21706;BME280;11014;53.076;18.208;2023-12-22T12:21:00;97567.44;;;5.14;78.96
21706;BME280;11014;53.076;18.208;2023-12-22T12:23:29;97568.00;;;5.06;79.34
21706;BME280;11014;53.076;18.208;2023-12-22T12:25:59;97545.69;;;4.97;79.67
21706;BME280;11014;53.076;18.208;2023-12-22T12:28:29;97561.88;;;5.06;79.60
21706;BME280;11014;53.076;18.208;2023-12-22T12:31:06;97544.81;;;5.17;79.56
21706;BME280;11014;53.076;18.208;2023-12-22T12:33:37;97527.28;;;5.06;79.62
21706;BME280;11014;53.076;18.208;2023-12-22T12:36:06;97552.63;;;4.83;80.12
21706;BME280;11014;53.076;18.208;2023-12-22T12:38:55;97537.69;;;5.02;80.08
21706;BME280;11014;53.076;18.208;2023-12-22T12:41:31;97537.69;;;5.02;79.75
21706;BME280;11014;53.076;18.208;2023-12-22T12:44:06;97534.75;;;5.19;79.84
21706;BME280;11014;53.076;18.208;2023-12-22T12:49:46;97549.13;;;4.98;80.10
21706;BME280;11014;53.076;18.208;2023-12-22T12:52:14;97542.75;;;4.99;80.09
21706;BME280;11014;53.076;18.208;2023-12-22T12:54:45;97545.44;;;4.78;80.73
21706;BME280;11014;53.076;18.208;2023-12-22T12:57:15;97559.22;;;5.01;80.43
21706;BME280;11014;53.076;18.208;2023-12-22T12:59:51;97558.91;;;5.22;80.16
21706;BME280;11014;53.076;18.208;2023-12-22T13:02:20;97552.31;;;5.10;80.06
21706;BME280;11014;53.076;18.208;2023-12-22T13:04:50;97566.66;;;5.09;80.03
21706;BME280;11014;53.076;18.208;2023-12-22T13:07:25;97561.88;;;5.16;79.85
21706;BME280;11014;53.076;18.208;2023-12-22T13:09:55;97576.25;;;5.05;80.14
21706;BME280;11014;53.076;18.208;2023-12-22T13:12:26;97565.59;;;5.15;79.89
21706;BME280;11014;53.076;18.208;2023-12-22T13:14:54;97574.13;;;5.07;79.95
21706;BME280;11014;53.076;18.208;2023-12-22T13:17:23;97593.25;;;5.14;79.86
21706;BME280;11014;53.076;18.208;2023-12-22T13:19:52;97586.91;;;5.05;80.03
21706;BME280;11014;53.076;18.208;2023-12-22T13:22:20;97594.88;;;5.05;80.38
21706;BME280;11014;53.076;18.208;2023-12-22T13:24:56;97603.63;;;5.15;80.34
21706;BME280;11014;53.076;18.208;2023-12-22T13:27:26;97598.09;;;4.97;80.50
21706;BME280;11014;53.076;18.208;2023-12-22T13:29:54;97602.34;;;4.77;80.99
21706;BME280;11014;53.076;18.208;2023-12-22T13:32:23;97603.91;;;5.09;80.66
21706;BME280;11014;53.076;18.208;2023-12-22T13:34:56;97597.50;;;5.15;80.24